sensor_id;sensor_type;location;lat;lon;timestamp;P1;durP1;ratioP1;P2;durP2;ratioP2
21822;SDS011;11074;48.596;9.238;2024-02-04T00:02:03;2.00;;;1.00;;
21822;SDS011;11074;48.596;9.238;2024-02-04T00:04:29;1.98;;;1.10;;
21822;SDS011;11074;48.596;9.238;2024-02-04T00:06:57;1.17;;;0.85;;
21822;SDS011;11074;48.596;9.238;2024-02-04T00:09:22;2.67;;;1.20;;
21822;SDS011;11074;48.596;9.238;2024-02-04T00:11:48;1.92;;;1.17;;
21822;SDS011;11074;48.596;9.238;2024-02-04T00:14:13;1.93;;;1.20;;
21822;SDS011;11074;48.596;9.238;2024-02-04T00:16:38;1.13;;;0.80;;
21822;SDS011;11074;48.596;9.238;2024-02-04T00:19:03;1.83;;;1.05;;
21822;SDS011;11074;48.596;9.238;2024-02-04T00:21:29;1.87;;;1.10;;
21822;SDS011;11074;48.596;9.238;2024-02-04T00:23:54;1.90;;;1.20;;
21822;SDS011;11074;48.596;9.238;2024-02-04T00:26:19;2.60;;;1.33;;
21822;SDS011;11074;48.596;9.238;2024-02-04T00:28:44;2.07;;;1.23;;
21822;SDS011;11074;48.596;9.238;2024-02-04T00:31:10;2.22;;;1.30;;
21822;SDS011;11074;48.596;9.238;2024-02-04T00:33:35;1.88;;;1.25;;
21822;SDS011;11074;48.596;9.238;2024-02-04T00:36:01;1.77;;;1.42;;
21822;SDS011;11074;48.596;9.238;2024-02-04T00:38:27;1.80;;;1.30;;
21822;SDS011;11074;48.596;9.238;2024-02-04T00:40:52;2.20;;;1.50;;
21822;SDS011;11074;48.596;9.238;2024-02-04T00:43:19;2.25;;;1.50;;
21822;SDS011;11074;48.596;9.238;2024-02-04T00:45:44;1.92;;;1.27;;
21822;SDS011;11074;48.596;9.238;2024-02-04T00:48:10;2.90;;;1.30;;
21822;SDS011;11074;48.596;9.238;2024-02-04T00:50:35;1.97;;;1.40;;
21822;SDS011;11074;48.596;9.238;2024-02-04T00:53:00;2.07;;;1.37;;
21822;SDS011;11074;48.596;9.238;2024-02-04T00:55:25;2.20;;;1.50;;
21822;SDS011;11074;48.596;9.238;2024-02-04T00:57:51;1.53;;;1.03;;
21822;SDS011;11074;48.596;9.238;2024-02-04T01:00:16;1.37;;;1.00;;
21822;SDS011;11074;48.596;9.238;2024-02-04T01:02:42;2.33;;;1.38;;
21822;SDS011;11074;48.596;9.238;2024-02-04T01:05:07;1.23;;;1.02;;
21822;SDS011;11074;48.596;9.238;2024-02-04T01:07:32;1.67;;;1.27;;
21822;SDS011;11074;48.596;9.238;2024-02-04T01:09:58;1.00;;;0.90;;
21822;SDS011;11074;48.596;9.238;2024-02-04T01:12:23;1.70;;;1.07;;
21822;SDS011;11074;48.596;9.238;2024-02-04T01:14:48;2.50;;;1.35;;
21822;SDS011;11074;48.596;9.238;2024-02-04T01:17:14;1.42;;;1.10;;
21822;SDS011;11074;48.596;9.238;2024-02-04T01:19:39;1.57;;;1.00;;
21822;SDS011;11074;48.596;9.238;2024-02-04T01:22:04;1.50;;;1.00;;
21822;SDS011;11074;48.596;9.238;2024-02-04T01:24:30;1.38;;;1.00;;
21822;SDS011;11074;48.596;9.238;2024-02-04T01:26:56;1.30;;;0.98;;
21822;SDS011;11074;48.596;9.238;2024-02-04T01:29:21;1.17;;;0.70;;
21822;SDS011;11074;48.596;9.238;2024-02-04T01:31:47;1.60;;;1.00;;
21822;SDS011;11074;48.596;9.238;2024-02-04T01:34:12;1.90;;;1.20;;
21822;SDS011;11074;48.596;9.238;2024-02-04T01:36:37;2.13;;;1.00;;
21822;SDS011;11074;48.596;9.238;2024-02-04T01:39:02;1.35;;;0.90;;
21822;SDS011;11074;48.596;9.238;2024-02-04T01:41:28;1.33;;;1.08;;
21822;SDS011;11074;48.596;9.238;2024-02-04T01:43:53;2.00;;;1.00;;
21822;SDS011;11074;48.596;9.238;2024-02-04T01:46:20;1.10;;;0.90;;
21822;SDS011;11074;48.596;9.238;2024-02-04T01:48:45;2.03;;;0.85;;
21822;SDS011;11074;48.596;9.238;2024-02-04T01:51:10;2.88;;;0.93;;
21822;SDS011;11074;48.596;9.238;2024-02-04T01:53:38;1.73;;;1.08;;
21822;SDS011;11074;48.596;9.238;2024-02-04T01:56:08;1.90;;;1.17;;
21822;SDS011;11074;48.596;9.238;2024-02-04T01:58:34;1.75;;;1.00;;
21822;SDS011;11074;48.596;9.238;2024-02-04T02:00:59;1.50;;;0.88;;
21822;SDS011;11074;48.596;9.238;2024-02-04T02:03:24;2.30;;;1.00;;
21822;SDS011;11074;48.596;9.238;2024-02-04T02:05:51;1.65;;;0.95;;
21822;SDS011;11074;48.596;9.238;2024-02-04T02:08:17;1.38;;;0.82;;
21822;SDS011;11074;48.596;9.238;2024-02-04T02:10:42;1.63;;;1.00;;
21822;SDS011;11074;48.596;9.238;2024-02-04T02:13:16;2.33;;;1.20;;
21822;SDS011;11074;48.596;9.238;2024-02-04T02:15:49;1.73;;;1.00;;
21822;SDS011;11074;48.596;9.238;2024-02-04T02:18:25;1.30;;;0.98;;
21822;SDS011;11074;48.596;9.238;2024-02-04T02:23:51;1.27;;;1.00;;
21822;SDS011;11074;48.596;9.238;2024-02-04T02:26:27;1.30;;;1.00;;
21822;SDS011;11074;48.596;9.238;2024-02-04T02:28:53;1.42;;;0.93;;
21822;SDS011;11074;48.596;9.238;2024-02-04T02:31:18;2.70;;;1.00;;
21822;SDS011;11074;48.596;9.238;2024-02-04T02:33:43;1.53;;;1.07;;
21822;SDS011;11074;48.596;9.238;2024-02-04T02:36:10;1.97;;;1.10;;
21822;SDS011;11074;48.596;9.238;2024-02-04T02:38:58;1.98;;;1.20;;
21822;SDS011;11074;48.596;9.238;2024-02-04T02:41:30;2.00;;;1.10;;
21822;SDS011;11074;48.596;9.238;2024-02-04T02:43:59;2.63;;;1.20;;
21822;SDS011;11074;48.596;9.238;2024-02-04T02:46:26;1.48;;;0.98;;
21822;SDS011;11074;48.596;9.238;2024-02-04T02:48:52;2.95;;;1.23;;
21822;SDS011;11074;48.596;9.238;2024-02-04T02:51:18;2.08;;;1.23;;
21822;SDS011;11074;48.596;9.238;2024-02-04T02:53:43;1.40;;;0.80;;
21822;SDS011;11074;48.596;9.238;2024-02-04T02:56:08;1.53;;;1.17;;
21822;SDS011;11074;48.596;9.238;2024-02-04T02:58:34;1.63;;;1.02;;
21822;SDS011;11074;48.596;9.238;2024-02-04T03:00:59;1.37;;;0.90;;
21822;SDS011;11074;48.596;9.238;2024-02-04T03:03:24;1.50;;;1.10;;
21822;SDS011;11074;48.596;9.238;2024-02-04T03:05:49;1.40;;;0.97;;
21822;SDS011;11074;48.596;9.238;2024-02-04T03:08:15;1.70;;;1.10;;
21822;SDS011;11074;48.596;9.238;2024-02-04T03:10:40;1.83;;;1.25;;
21822;SDS011;11074;48.596;9.238;2024-02-04T03:13:05;2.40;;;1.10;;
21822;SDS011;11074;48.596;9.238;2024-02-04T03:15:30;3.80;;;1.00;;
21822;SDS011;11074;48.596;9.238;2024-02-04T03:17:56;1.63;;;0.95;;
21822;SDS011;11074;48.596;9.238;2024-02-04T03:20:21;1.63;;;1.10;;
21822;SDS011;11074;48.596;9.238;2024-02-04T03:22:47;1.00;;;0.73;;
21822;SDS011;11074;48.596;9.238;2024-02-04T03:25:12;3.35;;;1.10;;
21822;SDS011;11074;48.596;9.238;2024-02-04T03:27:39;1.67;;;0.90;;
21822;SDS011;11074;48.596;9.238;2024-02-04T03:30:05;1.13;;;0.82;;
21822;SDS011;11074;48.596;9.238;2024-02-04T03:32:31;1.42;;;1.00;;
21822;SDS011;11074;48.596;9.238;2024-02-04T03:34:59;1.48;;;1.00;;
21822;SDS011;11074;48.596;9.238;2024-02-04T03:37:25;1.75;;;0.95;;
21822;SDS011;11074;48.596;9.238;2024-02-04T03:39:50;1.67;;;1.00;;
21822;SDS011;11074;48.596;9.238;2024-02-04T03:42:15;1.98;;;1.00;;
21822;SDS011;11074;48.596;9.238;2024-02-04T03:44:43;0.85;;;0.68;;
21822;SDS011;11074;48.596;9.238;2024-02-04T03:47:08;2.08;;;1.05;;
21822;SDS011;11074;48.596;9.238;2024-02-04T03:49:33;1.20;;;0.80;;
21822;SDS011;11074;48.596;9.238;2024-02-04T03:51:59;1.57;;;1.07;;
21822;SDS011;11074;48.596;9.238;2024-02-04T03:54:24;1.30;;;0.90;;
21822;SDS011;11074;48.596;9.238;2024-02-04T03:56:49;1.40;;;1.00;;
21822;SDS011;11074;48.596;9.238;2024-02-04T03:59:14;0.93;;;0.70;;
21822;SDS011;11074;48.596;9.238;2024-02-04T04:01:40;1.33;;;0.83;;
21822;SDS011;11074;48.596;9.238;2024-02-04T04:04:05;2.28;;;0.90;;
21822;SDS011;11074;48.596;9.238;2024-02-04T04:06:30;1.83;;;1.02;;
21822;SDS011;11074;48.596;9.238;2024-02-04T04:08:56;1.40;;;1.00;;
21822;SDS011;11074;48.596;9.238;2024-02-04T04:11:23;1.25;;;0.80;;
21822;SDS011;11074;48.596;9.238;2024-02-04T04:13:49;1.40;;;0.90;;
21822;SDS011;11074;48.596;9.238;2024-02-04T04:16:14;1.37;;;0.70;;
21822;SDS011;11074;48.596;9.238;2024-02-04T04:18:39;1.50;;;0.77;;
21822;SDS011;11074;48.596;9.238;2024-02-04T04:21:04;1.10;;;0.87;;
21822;SDS011;11074;48.596;9.238;2024-02-04T04:23:30;0.90;;;0.70;;
21822;SDS011;11074;48.596;9.238;2024-02-04T04:25:55;1.33;;;0.70;;
21822;SDS011;11074;48.596;9.238;2024-02-04T04:28:20;1.20;;;0.80;;
21822;SDS011;11074;48.596;9.238;2024-02-04T04:30:45;2.03;;;0.80;;
21822;SDS011;11074;48.596;9.238;2024-02-04T04:33:11;1.67;;;0.93;;
21822;SDS011;11074;48.596;9.238;2024-02-04T04:35:37;1.00;;;0.68;;
21822;SDS011;11074;48.596;9.238;2024-02-04T04:38:02;0.70;;;0.60;;
21822;SDS011;11074;48.596;9.238;2024-02-04T04:40:27;1.13;;;0.75;;
21822;SDS011;11074;48.596;9.238;2024-02-04T04:42:53;0.88;;;0.50;;
21822;SDS011;11074;48.596;9.238;2024-02-04T04:45:18;1.33;;;0.70;;
21822;SDS011;11074;48.596;9.238;2024-02-04T04:47:43;3.80;;;1.83;;
21822;SDS011;11074;48.596;9.238;2024-02-04T04:50:09;2.00;;;1.00;;
21822;SDS011;11074;48.596;9.238;2024-02-04T04:52:34;1.50;;;0.82;;
21822;SDS011;11074;48.596;9.238;2024-02-04T04:55:00;1.58;;;0.68;;
21822;SDS011;11074;48.596;9.238;2024-02-04T04:57:25;1.67;;;1.00;;
21822;SDS011;11074;48.596;9.238;2024-02-04T04:59:51;1.20;;;0.70;;
21822;SDS011;11074;48.596;9.238;2024-02-04T05:02:16;1.42;;;0.90;;
21822;SDS011;11074;48.596;9.238;2024-02-04T05:04:44;1.65;;;0.63;;
21822;SDS011;11074;48.596;9.238;2024-02-04T05:07:10;1.38;;;0.82;;
21822;SDS011;11074;48.596;9.238;2024-02-04T05:09:36;0.60;;;0.45;;
21822;SDS011;11074;48.596;9.238;2024-02-04T05:12:02;0.90;;;0.60;;
21822;SDS011;11074;48.596;9.238;2024-02-04T05:14:27;1.30;;;0.70;;
21822;SDS011;11074;48.596;9.238;2024-02-04T05:16:53;0.80;;;0.60;;
21822;SDS011;11074;48.596;9.238;2024-02-04T05:19:18;1.07;;;0.60;;
21822;SDS011;11074;48.596;9.238;2024-02-04T05:21:43;2.00;;;0.60;;
21822;SDS011;11074;48.596;9.238;2024-02-04T05:24:08;1.50;;;0.67;;
21822;SDS011;11074;48.596;9.238;2024-02-04T05:26:34;0.83;;;0.50;;
21822;SDS011;11074;48.596;9.238;2024-02-04T05:28:59;1.90;;;0.70;;
21822;SDS011;11074;48.596;9.238;2024-02-04T05:31:24;1.20;;;0.60;;
21822;SDS011;11074;48.596;9.238;2024-02-04T05:33:51;0.80;;;0.60;;
21822;SDS011;11074;48.596;9.238;2024-02-04T05:36:17;0.60;;;0.60;;
21822;SDS011;11074;48.596;9.238;2024-02-04T05:38:43;1.40;;;0.75;;
21822;SDS011;11074;48.596;9.238;2024-02-04T05:41:09;1.38;;;0.60;;
21822;SDS011;11074;48.596;9.238;2024-02-04T05:43:35;0.70;;;0.60;;
21822;SDS011;11074;48.596;9.238;2024-02-04T05:46:00;0.80;;;0.70;;
21822;SDS011;11074;48.596;9.238;2024-02-04T05:48:25;2.10;;;0.60;;
21822;SDS011;11074;48.596;9.238;2024-02-04T05:50:50;1.20;;;0.70;;
21822;SDS011;11074;48.596;9.238;2024-02-04T05:53:21;1.52;;;0.80;;
21822;SDS011;11074;48.596;9.238;2024-02-04T05:55:46;1.80;;;0.90;;
21822;SDS011;11074;48.596;9.238;2024-02-04T05:58:12;3.00;;;0.93;;
21822;SDS011;11074;48.596;9.238;2024-02-04T06:00:39;3.28;;;1.63;;
21822;SDS011;11074;48.596;9.238;2024-02-04T06:03:05;1.33;;;0.82;;
21822;SDS011;11074;48.596;9.238;2024-02-04T06:05:30;2.05;;;0.95;;
21822;SDS011;11074;48.596;9.238;2024-02-04T06:07:55;2.53;;;1.43;;
21822;SDS011;11074;48.596;9.238;2024-02-04T06:10:20;5.97;;;1.50;;
21822;SDS011;11074;48.596;9.238;2024-02-04T06:12:46;4.18;;;1.45;;
21822;SDS011;11074;48.596;9.238;2024-02-04T06:15:15;3.55;;;1.60;;
21822;SDS011;11074;48.596;9.238;2024-02-04T06:17:41;3.92;;;1.70;;
21822;SDS011;11074;48.596;9.238;2024-02-04T06:20:06;2.28;;;1.10;;
21822;SDS011;11074;48.596;9.238;2024-02-04T06:22:33;1.60;;;0.90;;
21822;SDS011;11074;48.596;9.238;2024-02-04T06:24:59;1.17;;;0.90;;
21822;SDS011;11074;48.596;9.238;2024-02-04T06:27:25;2.42;;;1.00;;
21822;SDS011;11074;48.596;9.238;2024-02-04T06:29:50;1.40;;;0.73;;
21822;SDS011;11074;48.596;9.238;2024-02-04T06:32:16;1.53;;;0.90;;
21822;SDS011;11074;48.596;9.238;2024-02-04T06:34:44;1.27;;;0.77;;
21822;SDS011;11074;48.596;9.238;2024-02-04T06:37:12;1.08;;;0.70;;
21822;SDS011;11074;48.596;9.238;2024-02-04T06:39:38;1.33;;;0.80;;
21822;SDS011;11074;48.596;9.238;2024-02-04T06:42:03;2.05;;;1.13;;
21822;SDS011;11074;48.596;9.238;2024-02-04T06:44:29;1.08;;;0.80;;
21822;SDS011;11074;48.596;9.238;2024-02-04T06:46:54;1.37;;;1.00;;
21822;SDS011;11074;48.596;9.238;2024-02-04T06:49:20;1.70;;;1.03;;
21822;SDS011;11074;48.596;9.238;2024-02-04T06:51:45;2.20;;;1.20;;
21822;SDS011;11074;48.596;9.238;2024-02-04T06:54:12;1.80;;;1.10;;
21822;SDS011;11074;48.596;9.238;2024-02-04T06:56:37;2.07;;;1.20;;
21822;SDS011;11074;48.596;9.238;2024-02-04T06:59:02;1.80;;;1.20;;
21822;SDS011;11074;48.596;9.238;2024-02-04T07:01:27;1.60;;;1.10;;
21822;SDS011;11074;48.596;9.238;2024-02-04T07:03:53;2.07;;;1.07;;
21822;SDS011;11074;48.596;9.238;2024-02-04T07:06:18;1.75;;;1.13;;
21822;SDS011;11074;48.596;9.238;2024-02-04T07:08:44;1.20;;;0.80;;
21822;SDS011;11074;48.596;9.238;2024-02-04T07:11:09;1.03;;;0.60;;
21822;SDS011;11074;48.596;9.238;2024-02-04T07:13:34;1.20;;;0.63;;
21822;SDS011;11074;48.596;9.238;2024-02-04T07:15:59;0.80;;;0.60;;
21822;SDS011;11074;48.596;9.238;2024-02-04T07:18:25;1.50;;;0.97;;
21822;SDS011;11074;48.596;9.238;2024-02-04T07:20:50;22.93;;;12.20;;
21822;SDS011;11074;48.596;9.238;2024-02-04T07:23:15;24.90;;;14.27;;
21822;SDS011;11074;48.596;9.238;2024-02-04T07:25:41;6.57;;;4.35;;
21822;SDS011;11074;48.596;9.238;2024-02-04T07:28:06;5.93;;;3.95;;
21822;SDS011;11074;48.596;9.238;2024-02-04T07:30:32;2.77;;;1.80;;
21822;SDS011;11074;48.596;9.238;2024-02-04T07:32:57;1.83;;;1.63;;
21822;SDS011;11074;48.596;9.238;2024-02-04T07:35:23;2.22;;;1.35;;
21822;SDS011;11074;48.596;9.238;2024-02-04T07:37:48;1.27;;;1.00;;
21822;SDS011;11074;48.596;9.238;2024-02-04T07:40:13;1.35;;;0.90;;
21822;SDS011;11074;48.596;9.238;2024-02-04T07:42:39;2.95;;;1.10;;
21822;SDS011;11074;48.596;9.238;2024-02-04T07:45:04;1.75;;;1.13;;
21822;SDS011;11074;48.596;9.238;2024-02-04T07:47:34;3.20;;;1.75;;
21822;SDS011;11074;48.596;9.238;2024-02-04T07:49:59;1.52;;;1.15;;
21822;SDS011;11074;48.596;9.238;2024-02-04T07:52:24;2.00;;;0.93;;
21822;SDS011;11074;48.596;9.238;2024-02-04T07:54:50;1.60;;;1.13;;
21822;SDS011;11074;48.596;9.238;2024-02-04T07:57:15;1.50;;;0.97;;
21822;SDS011;11074;48.596;9.238;2024-02-04T07:59:40;3.00;;;1.10;;
21822;SDS011;11074;48.596;9.238;2024-02-04T08:02:06;2.33;;;1.00;;
21822;SDS011;11074;48.596;9.238;2024-02-04T08:04:31;2.22;;;1.00;;
21822;SDS011;11074;48.596;9.238;2024-02-04T08:06:57;1.58;;;0.90;;
21822;SDS011;11074;48.596;9.238;2024-02-04T08:09:22;1.30;;;0.90;;
21822;SDS011;11074;48.596;9.238;2024-02-04T08:11:48;4.95;;;1.10;;
21822;SDS011;11074;48.596;9.238;2024-02-04T08:14:13;3.10;;;1.42;;
21822;SDS011;11074;48.596;9.238;2024-02-04T08:16:39;4.53;;;1.75;;
21822;SDS011;11074;48.596;9.238;2024-02-04T08:19:04;6.22;;;2.55;;
21822;SDS011;11074;48.596;9.238;2024-02-04T08:21:31;3.35;;;2.20;;
21822;SDS011;11074;48.596;9.238;2024-02-04T08:23:57;3.25;;;1.55;;
21822;SDS011;11074;48.596;9.238;2024-02-04T08:26:23;4.30;;;1.50;;
21822;SDS011;11074;48.596;9.238;2024-02-04T08:28:48;2.58;;;1.20;;
21822;SDS011;11074;48.596;9.238;2024-02-04T08:31:14;2.40;;;1.30;;
21822;SDS011;11074;48.596;9.238;2024-02-04T08:33:39;2.55;;;1.25;;
21822;SDS011;11074;48.596;9.238;2024-02-04T08:36:04;2.33;;;0.90;;
21822;SDS011;11074;48.596;9.238;2024-02-04T08:38:31;7.20;;;3.28;;
21822;SDS011;11074;48.596;9.238;2024-02-04T08:40:56;6.90;;;3.33;;
21822;SDS011;11074;48.596;9.238;2024-02-04T08:43:22;5.80;;;3.08;;
21822;SDS011;11074;48.596;9.238;2024-02-04T08:45:47;1.93;;;1.47;;
21822;SDS011;11074;48.596;9.238;2024-02-04T08:48:12;2.80;;;1.33;;
21822;SDS011;11074;48.596;9.238;2024-02-04T08:50:38;2.67;;;1.17;;
21822;SDS011;11074;48.596;9.238;2024-02-04T08:53:03;1.80;;;1.20;;
21822;SDS011;11074;48.596;9.238;2024-02-04T08:55:28;1.88;;;1.27;;
21822;SDS011;11074;48.596;9.238;2024-02-04T08:57:53;1.90;;;1.20;;
21822;SDS011;11074;48.596;9.238;2024-02-04T09:00:19;1.75;;;1.10;;
21822;SDS011;11074;48.596;9.238;2024-02-04T09:02:45;1.80;;;1.00;;
21822;SDS011;11074;48.596;9.238;2024-02-04T09:05:11;1.88;;;1.23;;
21822;SDS011;11074;48.596;9.238;2024-02-04T09:07:37;1.48;;;1.08;;
21822;SDS011;11074;48.596;9.238;2024-02-04T09:10:04;2.95;;;1.27;;
21822;SDS011;11074;48.596;9.238;2024-02-04T09:12:29;2.28;;;1.17;;
21822;SDS011;11074;48.596;9.238;2024-02-04T09:14:55;1.63;;;1.13;;
21822;SDS011;11074;48.596;9.238;2024-02-04T09:17:20;1.20;;;0.73;;
21822;SDS011;11074;48.596;9.238;2024-02-04T09:19:46;1.37;;;0.80;;
21822;SDS011;11074;48.596;9.238;2024-02-04T09:22:11;1.80;;;0.90;;
21822;SDS011;11074;48.596;9.238;2024-02-04T09:24:36;2.37;;;0.90;;
21822;SDS011;11074;48.596;9.238;2024-02-04T09:27:01;1.15;;;0.57;;
21822;SDS011;11074;48.596;9.238;2024-02-04T09:29:27;1.33;;;0.50;;
21822;SDS011;11074;48.596;9.238;2024-02-04T09:31:52;3.17;;;0.60;;
21822;SDS011;11074;48.596;9.238;2024-02-04T09:34:19;0.73;;;0.57;;
21822;SDS011;11074;48.596;9.238;2024-02-04T09:36:44;0.77;;;0.60;;
21822;SDS011;11074;48.596;9.238;2024-02-04T09:39:09;0.73;;;0.57;;
21822;SDS011;11074;48.596;9.238;2024-02-04T09:41:35;2.03;;;0.50;;
21822;SDS011;11074;48.596;9.238;2024-02-04T09:44:00;1.45;;;0.75;;
21822;SDS011;11074;48.596;9.238;2024-02-04T09:46:28;1.27;;;0.85;;
21822;SDS011;11074;48.596;9.238;2024-02-04T09:48:54;2.03;;;1.00;;
21822;SDS011;11074;48.596;9.238;2024-02-04T09:51:21;1.33;;;0.60;;
21822;SDS011;11074;48.596;9.238;2024-02-04T09:53:46;0.90;;;0.50;;
21822;SDS011;11074;48.596;9.238;2024-02-04T09:56:17;0.82;;;0.60;;
21822;SDS011;11074;48.596;9.238;2024-02-04T09:58:42;1.42;;;0.90;;
21822;SDS011;11074;48.596;9.238;2024-02-04T10:01:08;2.28;;;0.73;;
21822;SDS011;11074;48.596;9.238;2024-02-04T10:03:34;1.67;;;0.43;;
21822;SDS011;11074;48.596;9.238;2024-02-04T10:05:59;1.20;;;0.70;;
21822;SDS011;11074;48.596;9.238;2024-02-04T10:08:24;2.72;;;0.50;;
21822;SDS011;11074;48.596;9.238;2024-02-04T10:10:50;2.05;;;0.50;;
21822;SDS011;11074;48.596;9.238;2024-02-04T10:13:15;1.05;;;0.60;;
21822;SDS011;11074;48.596;9.238;2024-02-04T10:15:40;0.80;;;0.50;;
21822;SDS011;11074;48.596;9.238;2024-02-04T10:18:07;0.52;;;0.40;;
21822;SDS011;11074;48.596;9.238;2024-02-04T10:20:32;1.42;;;0.60;;
21822;SDS011;11074;48.596;9.238;2024-02-04T10:22:58;0.77;;;0.50;;
21822;SDS011;11074;48.596;9.238;2024-02-04T10:25:23;1.00;;;0.57;;
21822;SDS011;11074;48.596;9.238;2024-02-04T10:27:49;2.17;;;0.60;;
21822;SDS011;11074;48.596;9.238;2024-02-04T10:30:15;1.70;;;0.60;;
21822;SDS011;11074;48.596;9.238;2024-02-04T10:32:44;2.50;;;0.80;;
21822;SDS011;11074;48.596;9.238;2024-02-04T10:35:10;1.48;;;0.70;;
21822;SDS011;11074;48.596;9.238;2024-02-04T10:37:36;1.00;;;0.50;;
21822;SDS011;11074;48.596;9.238;2024-02-04T10:40:01;0.60;;;0.50;;
21822;SDS011;11074;48.596;9.238;2024-02-04T10:42:27;0.88;;;0.50;;
21822;SDS011;11074;48.596;9.238;2024-02-04T10:44:54;2.40;;;0.70;;
21822;SDS011;11074;48.596;9.238;2024-02-04T10:47:23;2.53;;;0.85;;
21822;SDS011;11074;48.596;9.238;2024-02-04T10:49:50;1.40;;;0.70;;
21822;SDS011;11074;48.596;9.238;2024-02-04T10:52:18;2.47;;;1.33;;
21822;SDS011;11074;48.596;9.238;2024-02-04T10:54:44;1.98;;;0.90;;
21822;SDS011;11074;48.596;9.238;2024-02-04T10:57:11;1.42;;;0.90;;
21822;SDS011;11074;48.596;9.238;2024-02-04T10:59:38;1.25;;;0.63;;
21822;SDS011;11074;48.596;9.238;2024-02-04T11:02:07;0.70;;;0.50;;
21822;SDS011;11074;48.596;9.238;2024-02-04T11:04:35;1.25;;;0.70;;
21822;SDS011;11074;48.596;9.238;2024-02-04T11:07:03;2.00;;;0.70;;
21822;SDS011;11074;48.596;9.238;2024-02-04T11:09:29;0.47;;;0.40;;
21822;SDS011;11074;48.596;9.238;2024-02-04T11:11:58;0.40;;;0.40;;
21822;SDS011;11074;48.596;9.238;2024-02-04T11:14:25;1.50;;;0.60;;
21822;SDS011;11074;48.596;9.238;2024-02-04T11:19:23;1.20;;;0.77;;
21822;SDS011;11074;48.596;9.238;2024-02-04T11:22:09;5.22;;;1.27;;
21822;SDS011;11074;48.596;9.238;2024-02-04T11:24:52;3.40;;;1.02;;
21822;SDS011;11074;48.596;9.238;2024-02-04T11:27:25;1.65;;;0.82;;
21822;SDS011;11074;48.596;9.238;2024-02-04T11:29:51;1.95;;;0.82;;
21822;SDS011;11074;48.596;9.238;2024-02-04T11:32:16;1.35;;;0.50;;
21822;SDS011;11074;48.596;9.238;2024-02-04T11:34:43;1.45;;;0.70;;
21822;SDS011;11074;48.596;9.238;2024-02-04T11:37:19;1.95;;;0.70;;
21822;SDS011;11074;48.596;9.238;2024-02-04T11:39:51;1.30;;;0.60;;
21822;SDS011;11074;48.596;9.238;2024-02-04T11:42:17;0.95;;;0.50;;
21822;SDS011;11074;48.596;9.238;2024-02-04T11:44:43;0.60;;;0.40;;
21822;SDS011;11074;48.596;9.238;2024-02-04T11:47:10;0.73;;;0.30;;
21822;SDS011;11074;48.596;9.238;2024-02-04T11:49:35;0.95;;;0.50;;
21822;SDS011;11074;48.596;9.238;2024-02-04T11:52:00;0.80;;;0.40;;
21822;SDS011;11074;48.596;9.238;2024-02-04T11:54:26;1.48;;;0.60;;
21822;SDS011;11074;48.596;9.238;2024-02-04T11:56:51;0.60;;;0.40;;
21822;SDS011;11074;48.596;9.238;2024-02-04T11:59:18;0.65;;;0.47;;
21822;SDS011;11074;48.596;9.238;2024-02-04T12:01:47;0.43;;;0.30;;
21822;SDS011;11074;48.596;9.238;2024-02-04T12:04:14;0.47;;;0.40;;
21822;SDS011;11074;48.596;9.238;2024-02-04T12:06:41;1.02;;;0.40;;
21822;SDS011;11074;48.596;9.238;2024-02-04T12:09:07;0.80;;;0.30;;
21822;SDS011;11074;48.596;9.238;2024-02-04T12:11:37;0.40;;;0.30;;
21822;SDS011;11074;48.596;9.238;2024-02-04T12:14:04;0.65;;;0.30;;
21822;SDS011;11074;48.596;9.238;2024-02-04T12:16:33;0.65;;;0.40;;
21822;SDS011;11074;48.596;9.238;2024-02-04T12:19:02;2.28;;;0.35;;
21822;SDS011;11074;48.596;9.238;2024-02-04T12:21:30;0.70;;;0.50;;
21822;SDS011;11074;48.596;9.238;2024-02-04T12:23:56;1.15;;;0.50;;
21822;SDS011;11074;48.596;9.238;2024-02-04T12:26:22;1.30;;;0.30;;
21822;SDS011;11074;48.596;9.238;2024-02-04T12:28:48;0.45;;;0.38;;
21822;SDS011;11074;48.596;9.238;2024-02-04T12:31:18;0.57;;;0.28;;
21822;SDS011;11074;48.596;9.238;2024-02-04T12:33:55;0.85;;;0.40;;
21822;SDS011;11074;48.596;9.238;2024-02-04T12:36:28;0.82;;;0.50;;
21822;SDS011;11074;48.596;9.238;2024-02-04T12:38:54;2.20;;;0.60;;
21822;SDS011;11074;48.596;9.238;2024-02-04T12:41:25;1.02;;;0.55;;
21822;SDS011;11074;48.596;9.238;2024-02-04T12:43:54;0.88;;;0.38;;
21822;SDS011;11074;48.596;9.238;2024-02-04T12:46:21;1.55;;;0.65;;
21822;SDS011;11074;48.596;9.238;2024-02-04T12:49:06;0.57;;;0.40;;
21822;SDS011;11074;48.596;9.238;2024-02-04T12:51:32;1.67;;;0.80;;
21822;SDS011;11074;48.596;9.238;2024-02-04T12:56:51;1.05;;;0.60;;
21822;SDS011;11074;48.596;9.238;2024-02-04T12:59:25;1.63;;;0.70;;
21822;SDS011;11074;48.596;9.238;2024-02-04T13:01:57;1.23;;;0.50;;
21822;SDS011;11074;48.596;9.238;2024-02-04T13:04:25;1.23;;;0.70;;
21822;SDS011;11074;48.596;9.238;2024-02-04T13:06:51;1.23;;;0.60;;
21822;SDS011;11074;48.596;9.238;2024-02-04T13:09:17;0.80;;;0.55;;
21822;SDS011;11074;48.596;9.238;2024-02-04T13:11:43;1.23;;;0.50;;
21822;SDS011;11074;48.596;9.238;2024-02-04T13:14:09;2.47;;;0.70;;
21822;SDS011;11074;48.596;9.238;2024-02-04T13:16:34;2.38;;;0.90;;
21822;SDS011;11074;48.596;9.238;2024-02-04T13:19:03;1.55;;;0.80;;
21822;SDS011;11074;48.596;9.238;2024-02-04T13:21:28;2.08;;;0.75;;
21822;SDS011;11074;48.596;9.238;2024-02-04T13:23:54;1.00;;;0.60;;
21822;SDS011;11074;48.596;9.238;2024-02-04T13:26:19;3.13;;;0.70;;
21822;SDS011;11074;48.596;9.238;2024-02-04T13:28:45;0.95;;;0.60;;
21822;SDS011;11074;48.596;9.238;2024-02-04T13:31:11;1.00;;;0.50;;
21822;SDS011;11074;48.596;9.238;2024-02-04T13:33:38;0.90;;;0.70;;
21822;SDS011;11074;48.596;9.238;2024-02-04T13:36:03;0.82;;;0.50;;
21822;SDS011;11074;48.596;9.238;2024-02-04T13:38:29;1.13;;;0.60;;
21822;SDS011;11074;48.596;9.238;2024-02-04T13:40:54;0.47;;;0.47;;
21822;SDS011;11074;48.596;9.238;2024-02-04T13:43:19;0.70;;;0.50;;
21822;SDS011;11074;48.596;9.238;2024-02-04T13:45:44;1.20;;;0.53;;
21822;SDS011;11074;48.596;9.238;2024-02-04T13:48:10;0.60;;;0.40;;
21822;SDS011;11074;48.596;9.238;2024-02-04T13:50:35;2.47;;;1.00;;
21822;SDS011;11074;48.596;9.238;2024-02-04T13:53:02;1.98;;;1.23;;
21822;SDS011;11074;48.596;9.238;2024-02-04T13:55:28;0.60;;;0.50;;
21822;SDS011;11074;48.596;9.238;2024-02-04T13:57:53;0.55;;;0.40;;
21822;SDS011;11074;48.596;9.238;2024-02-04T14:00:18;0.55;;;0.40;;
21822;SDS011;11074;48.596;9.238;2024-02-04T14:02:44;0.35;;;0.30;;
21822;SDS011;11074;48.596;9.238;2024-02-04T14:05:09;0.20;;;0.20;;
21822;SDS011;11074;48.596;9.238;2024-02-04T14:07:34;2.07;;;0.37;;
21822;SDS011;11074;48.596;9.238;2024-02-04T14:10:00;0.50;;;0.30;;
21822;SDS011;11074;48.596;9.238;2024-02-04T14:12:25;0.57;;;0.30;;
21822;SDS011;11074;48.596;9.238;2024-02-04T14:14:51;0.87;;;0.40;;
21822;SDS011;11074;48.596;9.238;2024-02-04T14:17:16;1.65;;;0.68;;
21822;SDS011;11074;48.596;9.238;2024-02-04T14:19:41;0.50;;;0.40;;
21822;SDS011;11074;48.596;9.238;2024-02-04T14:22:07;0.40;;;0.30;;
21822;SDS011;11074;48.596;9.238;2024-02-04T14:24:32;0.60;;;0.40;;
21822;SDS011;11074;48.596;9.238;2024-02-04T14:26:58;0.20;;;0.20;;
21822;SDS011;11074;48.596;9.238;2024-02-04T14:29:25;0.40;;;0.30;;
21822;SDS011;11074;48.596;9.238;2024-02-04T14:31:53;0.93;;;0.50;;
21822;SDS011;11074;48.596;9.238;2024-02-04T14:34:18;1.13;;;0.60;;
21822;SDS011;11074;48.596;9.238;2024-02-04T14:36:44;1.30;;;0.40;;
21822;SDS011;11074;48.596;9.238;2024-02-04T14:39:09;1.30;;;0.63;;
21822;SDS011;11074;48.596;9.238;2024-02-04T14:41:35;0.60;;;0.50;;
21822;SDS011;11074;48.596;9.238;2024-02-04T14:44:01;0.47;;;0.30;;
21822;SDS011;11074;48.596;9.238;2024-02-04T14:46:26;0.60;;;0.20;;
21822;SDS011;11074;48.596;9.238;2024-02-04T14:48:52;0.80;;;0.40;;
21822;SDS011;11074;48.596;9.238;2024-02-04T14:51:17;2.10;;;0.40;;